Time;durP1;ratioP1;P1;durP2;ratioP2;P2;SDS_P1;SDS_P2;PMS_P1;PMS_P2;Temp;Humidity;BMP_temperature;BMP_pressure;BME280_temperature;BME280_humidity;BME280_pressure;Samples;Min_cycle;Max_cycle;Signal;HPM_P1;HPM_P2
2022/09/27 00:00:33;;;;;;;3.00;0.45;;;10.50;99.90;;;;;;5062287;28;20040;-68
2022/09/27 00:02:59;;;;;;;6.38;0.80;;;10.50;99.90;;;;;;5065124;28;20044;-69
2022/09/27 00:05:25;;;;;;;9.55;0.70;;;10.50;99.90;;;;;;5064535;28;20049;-69
2022/09/27 00:07:50;;;;;;;3.25;0.55;;;10.50;99.90;;;;;;5066233;28;20548;-69
2022/09/27 00:10:16;;;;;;;4.30;0.60;;;10.50;99.90;;;;;;5066272;28;20401;-70
2022/09/27 00:12:42;;;;;;;6.75;0.57;;;10.50;99.90;;;;;;5100009;28;20079;-69
2022/09/27 00:15:08;;;;;;;6.05;0.68;;;10.50;99.90;;;;;;5069648;28;20036;-70
2022/09/27 00:17:35;;;;;;;5.25;0.63;;;10.50;99.90;;;;;;5063896;28;20051;-70
2022/09/27 00:20:04;;;;;;;4.35;0.70;;;10.50;99.90;;;;;;5069443;28;20061;-69
2022/09/27 00:22:31;;;;;;;4.90;0.50;;;10.30;99.90;;;;;;5065636;28;20123;-70
2022/09/27 00:24:57;;;;;;;7.00;0.90;;;10.40;99.90;;;;;;5068196;28;20064;-70
2022/09/27 00:27:23;;;;;;;6.50;0.80;;;10.40;99.90;;;;;;5069007;28;20099;-70
2022/09/27 00:29:49;;;;;;;5.55;0.70;;;10.40;99.90;;;;;;5068944;28;20048;-70
2022/09/27 00:32:15;;;;;;;2.17;0.50;;;10.40;99.90;;;;;;5051899;28;20040;-70
2022/09/27 00:34:41;;;;;;;4.97;0.60;;;10.40;99.90;;;;;;5051226;28;20055;-70
2022/09/27 00:37:07;;;;;;;3.67;0.57;;;10.40;99.90;;;;;;5067357;28;20043;-70
2022/09/27 00:39:33;;;;;;;6.32;0.63;;;10.40;99.90;;;;;;5050632;28;20079;-70
2022/09/27 00:42:02;;;;;;;3.95;0.60;;;10.30;99.90;;;;;;5066593;28;20623;-70
2022/09/27 00:44:28;;;;;;;7.90;0.65;;;10.30;99.90;;;;;;5068489;28;20041;-70
2022/09/27 00:47:09;;;;;;;5.25;0.77;;;10.40;99.90;;;;;;5067720;28;20064;-69
2022/09/27 00:49:48;;;;;;;6.60;0.90;;;10.30;99.90;;;;;;5068956;28;20516;-70
2022/09/27 00:52:40;;;;;;;4.93;0.75;;;10.30;99.90;;;;;;5066528;28;20044;-70
2022/09/27 00:55:13;;;;;;;2.95;0.63;;;10.30;99.90;;;;;;5045279;28;20481;-69
2022/09/27 00:57:40;;;;;;;3.53;0.57;;;10.30;99.90;;;;;;5068900;28;20123;-70
2022/09/27 01:00:09;;;;;;;5.35;0.73;;;10.40;99.90;;;;;;5068690;28;20048;-69
2022/09/27 01:02:38;;;;;;;5.50;0.50;;;10.20;99.90;;;;;;5064279;28;20037;-70
2022/09/27 01:05:07;;;;;;;7.57;0.88;;;10.20;99.90;;;;;;5050165;28;20032;-70
2022/09/27 01:07:33;;;;;;;7.38;0.77;;;10.30;99.90;;;;;;5067070;28;20041;-70
2022/09/27 01:09:59;;;;;;;3.65;0.70;;;10.20;99.90;;;;;;5050590;28;20467;-70
2022/09/27 01:12:40;;;;;;;4.15;0.77;;;10.30;99.90;;;;;;5069065;28;21325;-70
2022/09/27 01:15:20;;;;;;;6.32;0.65;;;10.40;99.90;;;;;;5071596;28;20505;-70
2022/09/27 01:18:04;;;;;;;6.18;1.15;;;10.20;99.90;;;;;;5067100;28;20055;-70
2022/09/27 01:21:05;;;;;;;8.07;0.80;;;10.20;99.90;;;;;;5067018;28;20044;-70
2022/09/27 01:23:56;;;;;;;10.15;1.05;;;10.20;99.90;;;;;;5066031;28;20528;-70
2022/09/27 01:26:59;;;;;;;7.35;1.40;;;10.20;99.90;;;;;;5065529;28;20520;-70
2022/09/27 01:29:58;;;;;;;2.28;0.60;;;10.20;99.90;;;;;;5097077;28;20117;-70
2022/09/27 01:32:34;;;;;;;7.10;0.80;;;10.20;99.90;;;;;;5062986;28;20524;-70
2022/09/27 01:35:25;;;;;;;4.55;0.52;;;10.20;99.90;;;;;;5067868;28;20536;-70
2022/09/27 01:38:00;;;;;;;3.65;0.65;;;10.20;99.90;;;;;;5064766;28;20067;-70
2022/09/27 01:41:01;;;;;;;4.43;0.80;;;10.20;99.90;;;;;;5065023;28;20090;-69
2022/09/27 01:43:43;;;;;;;4.53;0.80;;;10.10;99.90;;;;;;5065767;28;20148;-69
2022/09/27 01:46:27;;;;;;;7.45;0.90;;;10.10;99.90;;;;;;5066539;28;20075;-69
2022/09/27 01:48:55;;;;;;;2.70;0.60;;;10.10;99.90;;;;;;5067134;28;20090;-69
2022/09/27 01:51:32;;;;;;;4.65;0.60;;;10.10;99.90;;;;;;5066716;28;20417;-69
2022/09/27 01:54:02;;;;;;;3.10;0.60;;;10.10;99.90;;;;;;5065760;28;20028;-69
2022/09/27 01:56:53;;;;;;;4.05;0.60;;;10.10;99.90;;;;;;5064931;28;20118;-70
2022/09/27 02:00:05;;;;;;;7.13;0.70;;;10.10;99.90;;;;;;5067842;28;20396;-70
2022/09/27 02:02:33;;;;;;;;;;;10.10;99.90;;;;;;5041998;28;20131;-70
2022/09/27 02:05:02;;;;;;;3.80;0.68;;;10.30;99.90;;;;;;5065317;28;19924;-69
2022/09/27 02:07:35;;;;;;;5.05;0.63;;;10.00;99.90;;;;;;5078702;28;20127;-69
2022/09/27 02:10:08;;;;;;;8.43;0.70;;;10.00;99.90;;;;;;5066418;28;20044;-69
2022/09/27 02:12:41;;;;;;;2.60;0.50;;;10.00;99.90;;;;;;5064203;28;20044;-69
2022/09/27 02:15:11;;;;;;;8.68;1.05;;;10.00;99.90;;;;;;5066025;28;20060;-70
2022/09/27 02:17:39;;;;;;;6.28;0.90;;;10.00;99.90;;;;;;5064313;28;20137;-70
2022/09/27 02:20:05;;;;;;;8.45;0.60;;;10.00;99.90;;;;;;5065440;28;20036;-70
2022/09/27 02:22:36;;;;;;;5.63;0.60;;;10.00;99.90;;;;;;5065971;28;20101;-70
2022/09/27 02:25:11;;;;;;;4.28;0.80;;;10.00;99.90;;;;;;5096115;28;20036;-70
2022/09/27 02:27:53;;;;;;;6.78;0.85;;;10.00;99.90;;;;;;5060134;28;20044;-70
2022/09/27 02:30:19;;;;;;;8.55;0.90;;;10.00;99.90;;;;;;5047751;28;20392;-69
2022/09/27 02:32:45;;;;;;;10.48;1.00;;;10.00;99.90;;;;;;5064415;28;20071;-69
2022/09/27 02:35:23;;;;;;;5.53;1.10;;;10.00;99.90;;;;;;5065387;28;20045;-70
2022/09/27 02:37:50;;;;;;;5.57;0.82;;;10.00;99.90;;;;;;5047569;28;20547;-69
2022/09/27 02:40:16;;;;;;;6.30;0.70;;;10.00;99.90;;;;;;5048862;28;20044;-70
2022/09/27 02:42:43;;;;;;;7.65;1.00;;;10.00;99.90;;;;;;5066084;28;20115;-69
2022/09/27 02:45:11;;;;;;;7.90;1.10;;;10.30;99.90;;;;;;5064368;28;20040;-70
2022/09/27 02:47:40;;;;;;;8.48;0.88;;;9.90;99.90;;;;;;5066764;28;20448;-70
2022/09/27 02:50:29;;;;;;;6.22;0.75;;;10.00;99.90;;;;;;5066681;28;20116;-69
2022/09/27 02:53:10;;;;;;;4.95;0.55;;;9.90;99.90;;;;;;5061353;28;20055;-70
2022/09/27 02:56:07;;;;;;;3.60;0.77;;;9.90;99.90;;;;;;5081785;28;20504;-69
2022/09/27 02:58:36;;;;;;;7.72;0.82;;;9.80;99.90;;;;;;5050521;28;20044;-72
2022/09/27 03:01:14;;;;;;;4.88;0.82;;;9.90;99.90;;;;;;5066338;28;20052;-70
2022/09/27 03:04:01;;;;;;;7.93;0.93;;;9.80;99.90;;;;;;5066229;28;20040;-71
2022/09/27 03:06:28;;;;;;;10.40;0.95;;;9.80;99.90;;;;;;5064292;28;20143;-70
2022/09/27 03:08:55;;;;;;;4.65;0.63;;;9.80;99.90;;;;;;5066397;28;20033;-70
2022/09/27 03:11:21;;;;;;;4.82;0.70;;;9.70;99.90;;;;;;5067731;28;20410;-70
2022/09/27 03:13:47;;;;;;;3.63;0.60;;;9.70;99.90;;;;;;5068383;28;20067;-69
2022/09/27 03:16:14;;;;;;;8.77;0.60;;;9.70;99.90;;;;;;5066886;28;20039;-70
2022/09/27 03:18:41;;;;;;;4.03;0.50;;;9.70;99.90;;;;;;5060965;28;20083;-72
2022/09/27 03:21:06;;;;;;;2.40;0.40;;;9.70;99.90;;;;;;5065455;28;20044;-72
2022/09/27 03:23:32;;;;;;;8.10;0.95;;;9.60;99.90;;;;;;5068148;28;20048;-72
2022/09/27 03:25:58;;;;;;;0.93;0.30;;;9.60;99.90;;;;;;5066498;28;20119;-72
2022/09/27 03:28:24;;;;;;;3.38;0.90;;;9.70;99.90;;;;;;5060469;28;20044;-72
2022/09/27 03:30:50;;;;;;;5.53;0.82;;;9.60;99.90;;;;;;5066494;28;20048;-72
2022/09/27 03:33:16;;;;;;;5.95;0.82;;;9.60;99.90;;;;;;5061913;28;20051;-73
2022/09/27 03:35:42;;;;;;;6.32;0.80;;;9.60;99.90;;;;;;5061746;28;20513;-72
2022/09/27 03:38:08;;;;;;;9.60;1.20;;;9.60;99.90;;;;;;5066952;28;20040;-72
2022/09/27 03:40:35;;;;;;;4.97;0.70;;;9.70;99.90;;;;;;5065586;28;20070;-72
2022/09/27 03:43:01;;;;;;;12.55;1.00;;;9.70;99.90;;;;;;5044225;28;20400;-72
2022/09/27 03:45:26;;;;;;;5.30;0.75;;;9.70;99.90;;;;;;5050915;28;20070;-72
2022/09/27 03:47:53;;;;;;;6.70;1.02;;;9.70;99.90;;;;;;5049686;28;20116;-72
2022/09/27 03:50:18;;;;;;;3.67;0.60;;;9.60;99.90;;;;;;5061514;28;20044;-72
2022/09/27 03:52:44;;;;;;;5.43;0.55;;;9.60;99.90;;;;;;5052084;28;20129;-73
2022/09/27 03:55:11;;;;;;;5.30;0.95;;;9.60;99.90;;;;;;5070778;28;20036;-74
2022/09/27 03:57:37;;;;;;;7.60;1.00;;;9.60;99.90;;;;;;5052560;28;20044;-73
2022/09/27 04:00:05;;;;;;;3.83;0.73;;;9.60;99.90;;;;;;5069965;28;20407;-73
2022/09/27 04:02:31;;;;;;;6.65;1.05;;;9.60;99.90;;;;;;5066777;28;20044;-73
2022/09/27 04:04:56;;;;;;;11.68;1.65;;;9.60;99.90;;;;;;5050032;28;20512;-73
2022/09/27 04:07:22;;;;;;;6.40;0.60;;;9.50;99.90;;;;;;5069923;28;20047;-73
2022/09/27 04:09:48;;;;;;;4.20;0.70;;;9.50;99.90;;;;;;5068896;28;20120;-73
2022/09/27 04:12:14;;;;;;;4.25;0.63;;;9.60;99.90;;;;;;5068211;28;20455;-73
2022/09/27 04:14:40;;;;;;;4.03;0.65;;;9.50;99.90;;;;;;5100348;28;20052;-73
2022/09/27 04:17:06;;;;;;;5.15;0.63;;;9.50;99.90;;;;;;5068929;28;20044;-74
2022/09/27 04:19:36;;;;;;;6.95;0.80;;;9.50;99.90;;;;;;5049182;28;20526;-73
2022/09/27 04:22:05;;;;;;;3.58;0.70;;;9.50;99.90;;;;;;5067366;28;20048;-73
2022/09/27 04:24:31;;;;;;;0.75;0.30;;;9.50;99.90;;;;;;5068090;28;20505;-73
2022/09/27 04:26:57;;;;;;;1.77;0.40;;;9.40;99.90;;;;;;5063830;28;20040;-73
2022/09/27 04:29:23;;;;;;;4.40;0.63;;;9.40;99.90;;;;;;5061400;28;20060;-72
2022/09/27 04:31:48;;;;;;;4.80;0.50;;;9.40;99.90;;;;;;5067572;28;20455;-73
2022/09/27 04:34:14;;;;;;;2.28;0.40;;;9.40;99.90;;;;;;5069196;28;20405;-73
2022/09/27 04:36:40;;;;;;;5.85;0.60;;;9.50;99.90;;;;;;5066602;28;20045;-73
2022/09/27 04:39:08;;;;;;;3.40;0.45;;;9.40;99.90;;;;;;5067725;28;20090;-73
2022/09/27 04:41:34;;;;;;;2.92;0.70;;;9.40;99.90;;;;;;5072628;28;20064;-73
2022/09/27 04:44:01;;;;;;;6.90;0.60;;;9.40;99.90;;;;;;5067375;28;20032;-73
2022/09/27 04:46:30;;;;;;;2.78;0.60;;;9.40;99.90;;;;;;5054465;28;20087;-73
2022/09/27 04:48:59;;;;;;;6.47;0.98;;;9.50;99.90;;;;;;5066439;28;20536;-73
2022/09/27 04:51:26;;;;;;;3.30;0.57;;;9.50;99.90;;;;;;5099891;28;20445;-73
2022/09/27 04:53:51;;;;;;;2.90;0.50;;;9.50;99.90;;;;;;5066399;28;20048;-72
2022/09/27 04:56:17;;;;;;;6.70;0.90;;;9.40;99.90;;;;;;5068574;28;20040;-72
2022/09/27 04:58:43;;;;;;;5.72;0.73;;;9.50;99.90;;;;;;5051942;28;20044;-72
2022/09/27 05:01:09;;;;;;;4.10;0.70;;;9.50;99.90;;;;;;5063563;28;20044;-72
2022/09/27 05:03:35;;;;;;;7.30;0.75;;;9.40;99.90;;;;;;5061262;28;20402;-71
2022/09/27 05:06:01;;;;;;;3.90;0.65;;;9.40;99.90;;;;;;5068928;28;20036;-73
2022/09/27 05:08:27;;;;;;;6.85;0.73;;;9.40;99.90;;;;;;5068517;28;20044;-72
2022/09/27 05:10:54;;;;;;;4.78;1.00;;;9.80;99.90;;;;;;5067395;28;20425;-72
2022/09/27 05:13:20;;;;;;;6.30;0.80;;;9.50;99.90;;;;;;5047149;28;20066;-73
2022/09/27 05:15:45;;;;;;;5.40;0.80;;;9.40;99.90;;;;;;5064737;28;20048;-73
2022/09/27 05:18:11;;;;;;;11.10;0.98;;;9.40;99.90;;;;;;5067118;28;20112;-71
2022/09/27 05:20:38;;;;;;;6.13;0.75;;;9.50;99.90;;;;;;5064370;28;20040;-72
2022/09/27 05:23:04;;;;;;;12.65;1.10;;;9.50;99.90;;;;;;5067451;28;20124;-71
2022/09/27 05:25:31;;;;;;;5.25;0.90;;;9.40;99.90;;;;;;5067345;28;20123;-72
2022/09/27 05:27:58;;;;;;;10.07;0.80;;;9.40;99.90;;;;;;5099855;28;20032;-72
2022/09/27 05:30:25;;;;;;;7.57;0.85;;;9.40;99.90;;;;;;5060879;28;20052;-72
2022/09/27 05:32:51;;;;;;;8.55;1.33;;;9.40;99.90;;;;;;5064161;28;20036;-72
2022/09/27 05:35:18;;;;;;;3.75;0.65;;;9.40;99.90;;;;;;5067684;28;20094;-72
2022/09/27 05:37:51;;;;;;;5.28;0.82;;;9.40;99.90;;;;;;5049110;28;20040;-72
2022/09/27 05:40:17;;;;;;;4.82;0.90;;;9.40;99.90;;;;;;5063951;28;20049;-72
2022/09/27 05:42:42;;;;;;;5.32;1.13;;;9.70;99.90;;;;;;5060897;28;20466;-72
2022/09/27 05:45:09;;;;;;;5.15;0.90;;;9.40;99.90;;;;;;5060371;28;20582;-72
2022/09/27 05:47:34;;;;;;;5.32;0.93;;;9.50;99.90;;;;;;5060110;28;20037;-72
2022/09/27 05:50:00;;;;;;;3.38;0.77;;;9.40;99.90;;;;;;5061322;28;20090;-72
2022/09/27 05:52:26;;;;;;;4.30;0.80;;;9.40;99.90;;;;;;5059587;28;20115;-72
2022/09/27 05:54:52;;;;;;;5.43;0.68;;;9.40;99.90;;;;;;5088937;28;20171;-72
2022/09/27 05:57:17;;;;;;;3.53;0.90;;;9.50;99.90;;;;;;5060491;28;20050;-72
2022/09/27 05:59:43;;;;;;;4.57;0.93;;;9.50;99.90;;;;;;5060238;28;20080;-73
2022/09/27 06:02:12;;;;;;;3.95;0.60;;;9.40;99.90;;;;;;5057281;28;20036;-72
2022/09/27 06:04:37;;;;;;;3.83;0.73;;;9.50;99.90;;;;;;5086778;28;20672;-73
2022/09/27 06:07:03;;;;;;;5.32;1.02;;;9.40;99.90;;;;;;5044765;28;20044;-73
2022/09/27 06:09:29;;;;;;;5.60;0.70;;;9.40;99.90;;;;;;5063245;28;20133;-73
2022/09/27 06:11:55;;;;;;;3.90;0.80;;;9.40;99.90;;;;;;5062167;28;20092;-73
2022/09/27 06:14:21;;;;;;;3.55;0.80;;;9.40;99.90;;;;;;5044872;28;20041;-72
2022/09/27 06:16:47;;;;;;;4.40;0.70;;;9.40;99.90;;;;;;5056716;28;20055;-72
2022/09/27 06:19:12;;;;;;;3.83;0.80;;;9.40;99.90;;;;;;5072421;28;20033;-72
2022/09/27 06:21:38;;;;;;;7.40;0.90;;;9.40;99.90;;;;;;5088376;28;20084;-73
2022/09/27 06:24:04;;;;;;;3.78;0.75;;;9.60;99.90;;;;;;5059120;28;20041;-74
2022/09/27 06:26:29;;;;;;;4.78;0.70;;;9.40;99.90;;;;;;5059759;28;20143;-73
2022/09/27 06:28:55;;;;;;;6.65;0.60;;;9.40;99.90;;;;;;5055841;28;20691;-73
2022/09/27 06:31:21;;;;;;;4.38;0.90;;;9.50;99.90;;;;;;5044310;28;20039;-73
2022/09/27 06:33:48;;;;;;;7.35;0.70;;;9.70;99.90;;;;;;5062326;28;20494;-73
2022/09/27 06:36:14;;;;;;;5.30;0.80;;;9.50;99.90;;;;;;5061660;28;20158;-73
2022/09/27 06:38:40;;;;;;;5.65;0.75;;;9.50;99.90;;;;;;5059554;28;20040;-71
2022/09/27 06:41:08;;;;;;;4.93;0.80;;;9.50;99.90;;;;;;5059328;28;20051;-70
2022/09/27 06:43:34;;;;;;;4.47;0.70;;;9.50;99.90;;;;;;5059821;28;20040;-71
2022/09/27 06:46:04;;;;;;;3.85;0.68;;;9.50;99.90;;;;;;5056183;28;20036;-73
2022/09/27 06:48:30;;;;;;;6.40;0.77;;;9.50;99.90;;;;;;5055990;28;20126;-73
2022/09/27 06:50:56;;;;;;;3.28;0.93;;;9.50;99.90;;;;;;5037515;28;20609;-73
2022/09/27 06:53:23;;;;;;;6.78;0.80;;;9.50;99.90;;;;;;5055122;28;20076;-73
2022/09/27 06:55:50;;;;;;;5.47;0.93;;;9.50;99.90;;;;;;5057578;28;20110;-73
2022/09/27 07:01:01;;;;;;;4.47;0.65;;;9.50;99.90;;;;;;5052557;28;20051;-72
2022/09/27 07:03:33;;;;;;;4.10;0.70;;;9.50;99.90;;;;;;5055153;28;20131;-72
2022/09/27 07:06:01;;;;;;;4.35;0.80;;;9.60;99.90;;;;;;5038317;28;20429;-72
2022/09/27 07:08:28;;;;;;;5.13;0.90;;;9.50;99.90;;;;;;5085473;28;20067;-73
2022/09/27 07:11:12;;;;;;;2.75;0.70;;;9.50;99.90;;;;;;5055579;28;20044;-73
2022/09/27 07:13:41;;;;;;;5.10;0.75;;;9.60;99.90;;;;;;5058604;28;20037;-73
2022/09/27 07:16:09;;;;;;;4.00;0.90;;;9.60;99.90;;;;;;5059907;28;20405;-73
2022/09/27 07:18:35;;;;;;;8.77;1.05;;;9.70;99.90;;;;;;5039424;28;20051;-72
2022/09/27 07:21:00;;;;;;;7.47;1.20;;;9.60;99.90;;;;;;5057526;28;20028;-73
2022/09/27 07:23:26;;;;;;;3.75;0.80;;;9.70;99.90;;;;;;5053331;28;20052;-72
2022/09/27 07:25:52;;;;;;;6.35;0.80;;;9.70;99.90;;;;;;5056742;28;20341;-72
2022/09/27 07:28:18;;;;;;;5.90;0.75;;;9.70;99.90;;;;;;5036002;28;20048;-71
2022/09/27 07:30:45;;;;;;;5.50;0.77;;;9.70;99.90;;;;;;5054501;28;20032;-72
2022/09/27 07:33:11;;;;;;;7.18;1.00;;;9.80;99.90;;;;;;5061010;28;20040;-72
2022/09/27 07:35:41;;;;;;;4.90;0.90;;;9.80;99.90;;;;;;5040661;28;20041;-71
2022/09/27 07:38:11;;;;;;;6.20;0.93;;;9.80;99.90;;;;;;5056072;28;20519;-73
2022/09/27 07:40:38;;;;;;;6.38;0.82;;;9.80;99.90;;;;;;5050010;28;20668;-73
2022/09/27 07:43:04;;;;;;;5.55;1.00;;;9.80;99.90;;;;;;5056485;28;20040;-72
2022/09/27 07:45:31;;;;;;;3.72;0.63;;;9.80;99.90;;;;;;5040864;28;20113;-72
2022/09/27 07:47:58;;;;;;;8.63;0.90;;;10.00;99.90;;;;;;5059950;28;20390;-69
2022/09/27 07:50:23;;;;;;;5.25;0.75;;;9.90;99.90;;;;;;5057127;28;20044;-69
2022/09/27 07:52:50;;;;;;;2.65;0.60;;;9.90;99.90;;;;;;5056550;28;20157;-69
2022/09/27 07:55:16;;;;;;;3.58;0.60;;;9.90;99.90;;;;;;5054236;28;20040;-69
2022/09/27 07:57:44;;;;;;;4.00;0.77;;;9.90;99.90;;;;;;5060003;28;20335;-69
2022/09/27 08:00:13;;;;;;;5.20;0.93;;;9.90;99.90;;;;;;5039511;28;20052;-69
2022/09/27 08:02:40;;;;;;;3.53;0.55;;;9.90;99.90;;;;;;5048610;28;20060;-69
2022/09/27 08:05:06;;;;;;;1.98;0.68;;;9.90;99.90;;;;;;5057273;28;20312;-68
2022/09/27 08:07:32;;;;;;;4.03;0.80;;;9.90;99.90;;;;;;5056884;28;20048;-69
2022/09/27 08:09:58;;;;;;;1.92;0.57;;;10.00;99.90;;;;;;5057742;28;20055;-68
2022/09/27 08:12:24;;;;;;;3.92;0.80;;;10.00;99.90;;;;;;5056405;28;20063;-69
2022/09/27 08:14:51;;;;;;;5.43;0.90;;;10.10;99.90;;;;;;5054015;28;20139;-69
2022/09/27 08:17:17;;;;;;;4.55;0.65;;;10.10;99.90;;;;;;5056602;28;20052;-70
2022/09/27 08:19:44;;;;;;;3.67;0.65;;;10.40;99.90;;;;;;5055533;28;20046;-69
2022/09/27 08:22:13;;;;;;;3.20;1.02;;;10.20;99.90;;;;;;5058092;28;20491;-70
2022/09/27 08:24:39;;;;;;;3.25;0.65;;;10.40;99.90;;;;;;5060207;28;20479;-70
2022/09/27 08:27:06;;;;;;;6.82;0.90;;;10.50;99.90;;;;;;5088484;28;20536;-69
2022/09/27 08:29:33;;;;;;;7.15;0.93;;;10.80;99.90;;;;;;5043074;28;20136;-69
2022/09/27 08:31:59;;;;;;;4.18;0.90;;;10.60;99.90;;;;;;5063740;28;20044;-70
2022/09/27 08:34:27;;;;;;;5.45;0.75;;;10.60;99.90;;;;;;5093801;28;20097;-70
2022/09/27 08:36:54;;;;;;;2.50;0.57;;;10.60;99.90;;;;;;5063671;28;20052;-69
2022/09/27 08:39:23;;;;;;;2.45;0.68;;;10.70;99.90;;;;;;5062348;28;20103;-69
2022/09/27 08:42:13;;;;;;;9.18;0.80;;;10.70;99.90;;;;;;5061404;28;20041;-69
2022/09/27 08:44:58;;;;;;;6.03;0.90;;;10.60;99.90;;;;;;5094064;28;20122;-69
2022/09/27 08:47:28;;;;;;;2.40;0.70;;;10.60;99.90;;;;;;5091209;28;20051;-69
2022/09/27 08:50:01;;;;;;;3.55;1.02;;;10.70;99.90;;;;;;5062883;28;20402;-69
2022/09/27 08:52:44;;;;;;;4.75;0.70;;;10.70;99.90;;;;;;5061033;28;20040;-69
2022/09/27 08:55:36;;;;;;;3.15;0.85;;;10.70;99.90;;;;;;5064193;28;20044;-69
2022/09/27 08:58:11;;;;;;;4.80;1.00;;;10.80;99.90;;;;;;5042920;28;20048;-69
2022/09/27 09:00:38;;;;;;;5.85;0.82;;;10.90;99.90;;;;;;5092914;28;20135;-69
2022/09/27 09:03:03;;;;;;;3.63;0.60;;;10.90;99.90;;;;;;5061392;28;20144;-69
2022/09/27 09:05:33;;;;;;;1.25;0.55;;;11.00;99.90;;;;;;5064871;28;20342;-69
2022/09/27 09:08:15;;;;;;;3.83;0.80;;;11.10;99.90;;;;;;5072687;28;20044;-69
2022/09/27 09:13:49;;;;;;;3.83;0.70;;;11.10;99.90;;;;;;5089718;28;20058;-70
2022/09/27 09:16:14;;;;;;;8.65;0.65;;;11.20;99.90;;;;;;5063889;28;20128;-70
2022/09/27 09:19:06;;;;;;;4.43;0.85;;;11.20;99.90;;;;;;5047179;28;20623;-70
2022/09/27 09:21:41;;;;;;;3.95;0.70;;;11.30;99.90;;;;;;5089865;28;20040;-70
2022/09/27 09:24:42;;;;;;;6.95;0.60;;;11.40;99.90;;;;;;5059679;28;20137;-69
2022/09/27 09:27:26;;;;;;;3.33;0.60;;;11.40;99.90;;;;;;5090415;28;20056;-69
2022/09/27 09:30:01;;;;;;;1.23;0.30;;;11.40;99.90;;;;;;5058436;28;20055;-69
2022/09/27 09:32:43;;;;;;;1.10;0.22;;;11.30;99.90;;;;;;5058647;28;20045;-69
2022/09/27 09:35:33;;;;;;;2.35;0.30;;;11.20;99.90;;;;;;5059922;28;20504;-69
2022/09/27 09:38:04;;;;;;;2.10;0.40;;;11.10;99.90;;;;;;5057253;28;20054;-69
2022/09/27 09:40:45;;;;;;;2.42;0.40;;;11.00;99.90;;;;;;5056224;28;20044;-69
2022/09/27 09:43:34;;;;;;;2.13;0.20;;;11.20;99.90;;;;;;5085753;28;20041;-69
2022/09/27 09:46:11;;;;;;;1.40;0.20;;;10.90;99.90;;;;;;5056276;28;20044;-69
2022/09/27 09:48:54;;;;;;;1.25;0.30;;;10.90;99.90;;;;;;5070472;28;20049;-69
2022/09/27 09:51:26;;;;;;;1.95;0.43;;;10.90;99.90;;;;;;5052960;28;20615;-69
2022/09/27 09:54:03;;;;;;;2.70;0.40;;;10.80;99.90;;;;;;5057214;28;20397;-70
2022/09/27 09:56:33;;;;;;;3.38;0.30;;;10.90;99.90;;;;;;5055221;28;20055;-71
2022/09/27 09:59:24;;;;;;;3.40;0.50;;;10.90;99.90;;;;;;5083944;28;20106;-70
2022/09/27 10:01:50;;;;;;;1.73;0.40;;;10.80;99.90;;;;;;5052206;28;21268;-70
2022/09/27 10:04:23;;;;;;;1.45;0.30;;;10.80;99.90;;;;;;5068987;28;20852;-70
2022/09/27 10:06:50;;;;;;;1.25;0.30;;;10.80;99.90;;;;;;5085411;28;20040;-69
2022/09/27 10:09:18;;;;;;;1.60;0.30;;;10.80;99.90;;;;;;5057892;28;20040;-69
2022/09/27 10:11:45;;;;;;;3.60;0.30;;;10.90;99.90;;;;;;5059927;28;21345;-69
2022/09/27 10:14:14;;;;;;;3.10;0.30;;;10.90;99.90;;;;;;5060900;28;20044;-69
2022/09/27 10:16:55;;;;;;;2.58;0.30;;;10.90;99.90;;;;;;5059994;28;20047;-69
2022/09/27 10:19:30;;;;;;;1.10;0.28;;;11.00;99.90;;;;;;5067846;28;20060;-69
2022/09/27 10:22:02;;;;;;;2.20;0.43;;;11.00;99.90;;;;;;5058432;28;20513;-69
2022/09/27 10:24:29;;;;;;;2.95;0.40;;;11.10;99.90;;;;;;5041318;28;20611;-69
2022/09/27 10:26:59;;;;;;;2.42;0.45;;;11.20;99.90;;;;;;5060288;28;20048;-69
2022/09/27 10:29:31;;;;;;;2.20;0.43;;;11.20;99.90;;;;;;5057181;28;20040;-70
2022/09/27 10:31:57;;;;;;;;;;;11.20;99.90;;;;;;5058183;28;20040;-70
2022/09/27 10:34:36;;;;;;;1.60;0.40;;;11.20;99.90;;;;;;5059134;28;20692;-70
2022/09/27 10:37:11;;;;;;;3.00;0.52;;;11.10;99.90;;;;;;5059582;28;20044;-70
2022/09/27 10:39:40;;;;;;;2.85;0.25;;;11.00;99.90;;;;;;5058604;28;20044;-69
2022/09/27 10:42:34;;;;;;;1.17;0.20;;;10.90;99.90;;;;;;5057905;28;20457;-69
2022/09/27 10:45:24;;;;;;;1.90;0.30;;;10.90;99.90;;;;;;5060543;28;20643;-70
2022/09/27 10:47:50;;;;;;;2.22;0.20;;;10.80;99.90;;;;;;5049959;28;20049;-68
2022/09/27 10:50:28;;;;;;;1.50;0.20;;;10.70;99.90;;;;;;5042116;28;20049;-69
2022/09/27 10:53:14;;;;;;;1.95;0.20;;;10.70;99.90;;;;;;5054907;28;20513;-70
2022/09/27 10:55:45;;;;;;;1.25;0.30;;;10.70;99.90;;;;;;5057477;28;20455;-68
2022/09/27 10:58:26;;;;;;;3.25;0.30;;;10.70;99.90;;;;;;5058951;28;20083;-70
2022/09/27 11:00:59;;;;;;;3.25;0.40;;;10.60;99.90;;;;;;5083972;28;20053;-69
2022/09/27 11:03:27;;;;;;;0.45;0.25;;;10.60;99.90;;;;;;5055282;28;20619;-70
2022/09/27 11:05:54;;;;;;;1.48;0.30;;;10.50;99.90;;;;;;5057036;28;20655;-70
2022/09/27 11:08:27;;;;;;;4.13;0.57;;;10.60;99.90;;;;;;5059453;28;20052;-70
2022/09/27 11:11:00;;;;;;;2.70;0.63;;;10.50;99.90;;;;;;5056837;28;20044;-70
2022/09/27 11:13:33;;;;;;;1.70;0.30;;;10.60;99.90;;;;;;5042991;28;20082;-70
2022/09/27 11:16:17;;;;;;;4.70;0.50;;;10.60;99.90;;;;;;5058877;28;20083;-69
2022/09/27 11:19:18;;;;;;;2.97;0.60;;;10.60;99.90;;;;;;5054658;28;20097;-69
2022/09/27 11:21:52;;;;;;;2.38;0.85;;;10.70;99.90;;;;;;5014395;28;20045;-70
2022/09/27 11:24:49;;;;;;;2.13;0.63;;;10.70;99.90;;;;;;5050934;28;20052;-70
2022/09/27 11:27:53;;;;;;;2.80;0.50;;;10.80;99.90;;;;;;5040831;28;20044;-70
2022/09/27 11:30:21;;;;;;;1.88;0.50;;;10.90;99.90;;;;;;5057327;28;20040;-70
2022/09/27 11:32:56;;;;;;;3.00;0.45;;;11.00;99.90;;;;;;5058158;28;20144;-69
2022/09/27 11:35:36;;;;;;;3.13;0.30;;;11.00;99.90;;;;;;5059676;28;20080;-70
2022/09/27 11:38:24;;;;;;;3.72;0.60;;;11.10;99.90;;;;;;5081236;28;20063;-69
2022/09/27 11:41:22;;;;;;;2.15;0.45;;;11.20;99.90;;;;;;5086247;28;20048;-70
2022/09/27 11:44:14;;;;;;;3.67;0.40;;;11.30;99.90;;;;;;5080215;28;20032;-69
2022/09/27 11:46:56;;;;;;;3.83;0.60;;;11.30;99.90;;;;;;5044365;28;20057;-69
2022/09/27 11:49:31;;;;;;;4.63;0.50;;;11.40;99.90;;;;;;5032995;28;20942;-70
2022/09/27 11:52:21;;;;;;;2.85;0.50;;;11.40;99.90;;;;;;5050450;28;20102;-70
2022/09/27 11:55:25;;;;;;;3.90;0.50;;;11.40;99.90;;;;;;5056536;28;20413;-70
2022/09/27 11:58:14;;;;;;;1.60;0.38;;;11.30;99.90;;;;;;5046685;28;20040;-70
2022/09/27 12:00:54;;;;;;;4.55;0.88;;;11.30;99.90;;;;;;5041943;28;20052;-70
2022/09/27 12:03:49;;;;;;;4.63;0.60;;;11.30;99.90;;;;;;5085176;28;20449;-70
2022/09/27 12:06:27;;;;;;;4.57;0.60;;;11.30;99.90;;;;;;5056714;28;20044;-69
2022/09/27 12:09:09;;;;;;;5.68;1.40;;;11.30;99.90;;;;;;5055802;28;20063;-71
2022/09/27 12:11:50;;;;;;;;;;;11.40;99.90;;;;;;5077960;28;20114;-70
2022/09/27 12:14:33;;;;;;;1.70;0.40;;;11.40;99.90;;;;;;5061037;28;19928;-70
2022/09/27 12:17:04;;;;;;;2.38;0.40;;;11.50;99.90;;;;;;5041989;28;20538;-71
2022/09/27 12:19:35;;;;;;;2.97;0.90;;;11.80;99.90;;;;;;5059069;28;20047;-70
2022/09/27 12:22:03;;;;;;;;;;;11.60;99.90;;;;;;5089579;28;20053;-72
2022/09/27 12:24:29;;;;;;;3.95;0.40;;;11.60;99.90;;;;;;5046575;28;19950;-71
2022/09/27 12:27:07;;;;;;;2.20;0.40;;;11.60;99.90;;;;;;5042907;28;20090;-71
2022/09/27 12:29:38;;;;;;;4.00;0.50;;;11.60;99.90;;;;;;5056535;28;20048;-72
2022/09/27 12:32:19;;;;;;;2.05;0.40;;;11.60;99.90;;;;;;5055970;28;20040;-70
2022/09/27 12:34:55;;;;;;;3.92;1.05;;;11.60;99.90;;;;;;5063055;28;20565;-70
2022/09/27 12:37:36;;;;;;;5.22;0.47;;;11.60;99.90;;;;;;5076132;28;20084;-70
2022/09/27 12:40:14;;;;;;;2.00;0.40;;;11.60;99.90;;;;;;5060230;28;20544;-71
2022/09/27 12:42:47;;;;;;;3.97;0.68;;;11.60;99.90;;;;;;5061314;28;20048;-70
2022/09/27 12:45:15;;;;;;;3.67;0.40;;;11.60;99.90;;;;;;5056626;28;20055;-72
2022/09/27 12:47:43;;;;;;;2.22;0.40;;;11.60;99.90;;;;;;5043509;28;20045;-72
2022/09/27 12:50:55;;;;;;;3.28;0.45;;;11.60;99.90;;;;;;5054212;28;20056;-70
2022/09/27 12:53:49;;;;;;;5.38;0.52;;;11.60;99.90;;;;;;5054863;28;20140;-71
2022/09/27 12:56:34;;;;;;;5.22;0.50;;;11.60;99.90;;;;;;5029834;28;21274;-70
2022/09/27 12:59:00;;;;;;;2.15;0.43;;;11.70;99.90;;;;;;5045470;28;20044;-71
2022/09/27 13:01:44;;;;;;;2.45;0.47;;;11.80;99.90;;;;;;5043903;28;20063;-70
2022/09/27 13:04:16;;;;;;;2.70;0.30;;;11.80;99.90;;;;;;5044293;28;20045;-70
2022/09/27 13:07:00;;;;;;;3.15;0.60;;;11.80;99.90;;;;;;5044065;28;20519;-72
2022/09/27 13:09:56;;;;;;;0.88;0.30;;;11.80;99.90;;;;;;5042625;28;20045;-71
2022/09/27 13:12:26;;;;;;;1.85;0.45;;;11.80;99.90;;;;;;5047745;28;20960;-71
2022/09/27 13:15:12;;;;;;;1.17;0.40;;;11.80;99.90;;;;;;5045082;28;20390;-70
2022/09/27 13:17:39;;;;;;;2.00;0.43;;;11.80;99.90;;;;;;5068762;28;20049;-71
2022/09/27 13:20:26;;;;;;;2.42;0.40;;;11.70;99.90;;;;;;5027573;28;20044;-70
2022/09/27 13:22:53;;;;;;;1.08;0.30;;;11.60;99.90;;;;;;5051893;28;20044;-70
2022/09/27 13:25:59;;;;;;;5.55;0.40;;;11.70;99.90;;;;;;5050244;28;20075;-70